Terminal Aerodrome Forecast
Issued by NWS

Current Version | Previous Version | Graphics & Text | Print | Product List | Glossary On
Versions: 1 2 3 4 5 6 7 8 9 10 11 12 13 14 15 16 17 18 19 20 21 22 23 24
232
FTUS41 KILN 122331
TAFLUK
TAF
KLUK 122331Z 1300/1324 28012KT P6SM BKN060
     FM130100 27008KT P6SM SCT060
     FM130600 24004KT P6SM BKN120
     FM131400 21011G19KT P6SM BKN080
     FM132200 21012G19KT P6SM VCSH BKN040=

USA.gov is the U.S. government's official web portal to all federal, state and local government web resources and services.